Main page
METAR-TAF:

METAR-TAF

Airports :

Aurora Municipal Airport

Aurora, Illinois, United States

latitude: 41-46-12N, longitude: 088-28-53W, elevation: 705 ft

Current weather observation

The report was made 41 minutes ago, at 01:52 UTC
Wind 6 mph from the Southwest
Temperature 66°F
Humidity 43%
Pressure 29.87 in. Hg
Visibility: 10 miles
Clear sky

METAR: KARR 230152Z AUTO 22005KT 10SM CLR 19/06 A2987 RMK AO2 SLP112 T01890056

Time: 21:33 (02:33 UTC)


TAF: missing

Weather observations and forecasts of more than 4000 airports (METAR and TAF reports).

The available stations are represented by yellow and red dots on the map.

Hover mouse over dot to see the name of the station.

Then click to see weather observations and forecasts.

To change the map : click on the green buttons with a black cross to zoom in, on the green button with a dash to zoom out, or on the green arrows for adjacent maps.


METAR-TAF: